sensor_id;sensor_type;location;lat;lon;timestamp;pressure;altitude;pressure_sealevel;temperature;humidity
2785;BME280;57944;48.722;9.316;2023-03-03T00:00:26;98266.94;;;0.85;100.00
2785;BME280;57944;48.722;9.316;2023-03-03T00:03:04;98266.06;;;0.75;100.00
2785;BME280;57944;48.722;9.316;2023-03-03T00:05:36;98264.38;;;0.54;100.00
2785;BME280;57944;48.722;9.316;2023-03-03T00:08:06;98266.19;;;0.52;100.00
2785;BME280;57944;48.722;9.316;2023-03-03T00:10:37;98270.69;;;0.37;100.00
2785;BME280;57944;48.722;9.316;2023-03-03T00:13:17;98269.94;;;0.26;100.00
2785;BME280;57944;48.722;9.316;2023-03-03T00:15:48;98264.75;;;0.17;100.00
2785;BME280;57944;48.722;9.316;2023-03-03T00:18:25;98262.91;;;0.08;100.00
2785;BME280;57944;48.722;9.316;2023-03-03T00:20:59;98266.81;;;0.12;100.00
2785;BME280;57944;48.722;9.316;2023-03-03T00:23:35;98269.19;;;0.03;100.00
2785;BME280;57944;48.722;9.316;2023-03-03T00:26:19;98269.19;;;0.03;100.00
2785;BME280;57944;48.722;9.316;2023-03-03T00:28:53;98267.88;;;-0.13;100.00
2785;BME280;57944;48.722;9.316;2023-03-03T00:31:30;98277.03;;;-0.34;100.00
2785;BME280;57944;48.722;9.316;2023-03-03T00:34:23;98269.41;;;-0.33;100.00
2785;BME280;57944;48.722;9.316;2023-03-03T00:36:56;98265.28;;;-0.45;100.00
2785;BME280;57944;48.722;9.316;2023-03-03T00:39:30;98266.53;;;-0.28;100.00
2785;BME280;57944;48.722;9.316;2023-03-03T00:42:11;98265.97;;;-0.20;100.00
2785;BME280;57944;48.722;9.316;2023-03-03T00:44:46;98265.97;;;-0.32;100.00
2785;BME280;57944;48.722;9.316;2023-03-03T00:47:27;98270.06;;;-0.42;100.00
2785;BME280;57944;48.722;9.316;2023-03-03T00:50:31;98262.81;;;-0.56;100.00
2785;BME280;57944;48.722;9.316;2023-03-03T00:53:10;98261.78;;;-0.65;100.00
2785;BME280;57944;48.722;9.316;2023-03-03T00:55:45;98259.19;;;-0.75;100.00
2785;BME280;57944;48.722;9.316;2023-03-03T00:58:16;98258.25;;;-0.85;100.00
2785;BME280;57944;48.722;9.316;2023-03-03T01:00:53;98262.69;;;-0.88;100.00
2785;BME280;57944;48.722;9.316;2023-03-03T01:03:34;98262.56;;;-0.87;100.00
2785;BME280;57944;48.722;9.316;2023-03-03T01:06:05;98262.94;;;-0.69;100.00
2785;BME280;57944;48.722;9.316;2023-03-03T01:08:36;98265.75;;;-0.74;100.00
2785;BME280;57944;48.722;9.316;2023-03-03T01:11:11;98266.56;;;-0.84;100.00
2785;BME280;57944;48.722;9.316;2023-03-03T01:13:45;98259.03;;;-0.84;100.00
2785;BME280;57944;48.722;9.316;2023-03-03T01:16:20;98261.69;;;-0.86;100.00
2785;BME280;57944;48.722;9.316;2023-03-03T01:18:50;98251.44;;;-0.94;100.00
2785;BME280;57944;48.722;9.316;2023-03-03T01:21:21;98258.47;;;-0.88;100.00
2785;BME280;57944;48.722;9.316;2023-03-03T01:23:51;98252.69;;;-0.77;100.00
2785;BME280;57944;48.722;9.316;2023-03-03T01:26:21;98253.38;;;-0.75;100.00
2785;BME280;57944;48.722;9.316;2023-03-03T01:28:51;98258.72;;;-0.80;100.00
2785;BME280;57944;48.722;9.316;2023-03-03T01:31:24;98255.06;;;-0.76;100.00
2785;BME280;57944;48.722;9.316;2023-03-03T01:33:54;98258.94;;;-0.83;100.00
2785;BME280;57944;48.722;9.316;2023-03-03T01:36:25;98253.56;;;-0.90;100.00
2785;BME280;57944;48.722;9.316;2023-03-03T01:38:55;98260.66;;;-0.83;100.00
2785;BME280;57944;48.722;9.316;2023-03-03T01:41:27;98258.59;;;-0.78;100.00
2785;BME280;57944;48.722;9.316;2023-03-03T01:44:00;98261.91;;;-0.89;100.00
2785;BME280;57944;48.722;9.316;2023-03-03T01:46:53;98259.25;;;-0.99;100.00
2785;BME280;57944;48.722;9.316;2023-03-03T01:49:28;98260.28;;;-0.90;100.00
2785;BME280;57944;48.722;9.316;2023-03-03T01:52:10;98255.75;;;-0.96;100.00
2785;BME280;57944;48.722;9.316;2023-03-03T01:54:49;98258.78;;;-1.15;100.00
2785;BME280;57944;48.722;9.316;2023-03-03T01:57:26;98255.16;;;-1.22;100.00
2785;BME280;57944;48.722;9.316;2023-03-03T02:00:01;98255.22;;;-1.35;100.00
2785;BME280;57944;48.722;9.316;2023-03-03T02:02:43;98255.66;;;-1.41;100.00
2785;BME280;57944;48.722;9.316;2023-03-03T02:05:15;98254.75;;;-1.40;100.00
2785;BME280;57944;48.722;9.316;2023-03-03T02:07:46;98249.50;;;-1.48;100.00
2785;BME280;57944;48.722;9.316;2023-03-03T02:10:19;98238.84;;;-1.39;100.00
2785;BME280;57944;48.722;9.316;2023-03-03T02:12:52;98235.28;;;-1.48;100.00
2785;BME280;57944;48.722;9.316;2023-03-03T02:15:26;98239.41;;;-1.47;100.00
2785;BME280;57944;48.722;9.316;2023-03-03T02:18:05;98232.03;;;-1.37;100.00
2785;BME280;57944;48.722;9.316;2023-03-03T02:20:53;98235.25;;;-1.13;100.00
2785;BME280;57944;48.722;9.316;2023-03-03T02:23:32;98221.78;;;-1.34;100.00
2785;BME280;57944;48.722;9.316;2023-03-03T02:26:13;98227.84;;;-1.72;100.00
2785;BME280;57944;48.722;9.316;2023-03-03T02:28:44;98219.00;;;-1.65;100.00
2785;BME280;57944;48.722;9.316;2023-03-03T02:31:19;98225.94;;;-1.57;100.00
2785;BME280;57944;48.722;9.316;2023-03-03T02:33:51;98224.59;;;-1.61;100.00
2785;BME280;57944;48.722;9.316;2023-03-03T02:36:25;98217.19;;;-1.63;100.00
2785;BME280;57944;48.722;9.316;2023-03-03T02:39:07;98227.91;;;-1.49;100.00
2785;BME280;57944;48.722;9.316;2023-03-03T02:41:47;98227.22;;;-1.51;100.00
2785;BME280;57944;48.722;9.316;2023-03-03T02:44:23;98230.31;;;-1.37;100.00
2785;BME280;57944;48.722;9.316;2023-03-03T02:46:56;98226.50;;;-1.18;100.00
2785;BME280;57944;48.722;9.316;2023-03-03T02:49:31;98232.31;;;-0.95;100.00
2785;BME280;57944;48.722;9.316;2023-03-03T02:52:07;98230.97;;;-0.77;100.00
2785;BME280;57944;48.722;9.316;2023-03-03T02:54:40;98230.94;;;-0.54;100.00
2785;BME280;57944;48.722;9.316;2023-03-03T02:57:13;98231.47;;;-0.28;100.00
2785;BME280;57944;48.722;9.316;2023-03-03T02:59:43;98232.06;;;-0.25;100.00
2785;BME280;57944;48.722;9.316;2023-03-03T03:02:16;98240.41;;;-0.03;100.00
2785;BME280;57944;48.722;9.316;2023-03-03T03:04:47;98235.19;;;0.00;100.00
2785;BME280;57944;48.722;9.316;2023-03-03T03:07:21;98235.72;;;0.36;100.00
2785;BME280;57944;48.722;9.316;2023-03-03T03:09:51;98238.16;;;0.47;100.00
2785;BME280;57944;48.722;9.316;2023-03-03T03:12:24;98237.38;;;0.47;100.00
2785;BME280;57944;48.722;9.316;2023-03-03T03:14:56;98246.00;;;0.33;100.00
2785;BME280;57944;48.722;9.316;2023-03-03T03:17:26;98242.72;;;0.21;100.00
2785;BME280;57944;48.722;9.316;2023-03-03T03:19:59;98238.66;;;0.41;100.00
2785;BME280;57944;48.722;9.316;2023-03-03T03:22:29;98238.84;;;0.49;100.00
2785;BME280;57944;48.722;9.316;2023-03-03T03:25:00;98235.59;;;0.58;100.00
2785;BME280;57944;48.722;9.316;2023-03-03T03:27:33;98229.09;;;0.67;100.00
2785;BME280;57944;48.722;9.316;2023-03-03T03:30:06;98235.84;;;0.55;100.00
2785;BME280;57944;48.722;9.316;2023-03-03T03:32:36;98230.78;;;0.46;100.00
2785;BME280;57944;48.722;9.316;2023-03-03T03:35:07;98239.03;;;0.57;100.00
2785;BME280;57944;48.722;9.316;2023-03-03T03:37:37;98249.38;;;0.64;100.00
2785;BME280;57944;48.722;9.316;2023-03-03T03:40:10;98242.22;;;0.59;100.00
2785;BME280;57944;48.722;9.316;2023-03-03T03:42:43;98245.03;;;0.66;100.00
2785;BME280;57944;48.722;9.316;2023-03-03T03:45:13;98244.19;;;0.77;100.00
2785;BME280;57944;48.722;9.316;2023-03-03T03:47:45;98239.69;;;0.80;100.00
2785;BME280;57944;48.722;9.316;2023-03-03T03:50:16;98235.66;;;0.89;100.00
2785;BME280;57944;48.722;9.316;2023-03-03T03:52:47;98242.97;;;0.92;100.00
2785;BME280;57944;48.722;9.316;2023-03-03T03:55:18;98245.88;;;0.97;100.00
2785;BME280;57944;48.722;9.316;2023-03-03T03:57:51;98243.53;;;1.05;100.00
2785;BME280;57944;48.722;9.316;2023-03-03T04:00:22;98250.97;;;1.17;100.00
2785;BME280;57944;48.722;9.316;2023-03-03T04:02:57;98249.31;;;1.27;100.00
2785;BME280;57944;48.722;9.316;2023-03-03T04:05:27;98249.75;;;1.32;100.00
2785;BME280;57944;48.722;9.316;2023-03-03T04:07:57;98248.84;;;1.43;100.00
2785;BME280;57944;48.722;9.316;2023-03-03T04:10:27;98249.66;;;1.43;100.00
2785;BME280;57944;48.722;9.316;2023-03-03T04:13:00;98248.06;;;1.42;100.00
2785;BME280;57944;48.722;9.316;2023-03-03T04:15:32;98248.72;;;1.44;100.00
2785;BME280;57944;48.722;9.316;2023-03-03T04:18:03;98250.00;;;1.29;100.00
2785;BME280;57944;48.722;9.316;2023-03-03T04:20:33;98254.50;;;1.35;100.00
2785;BME280;57944;48.722;9.316;2023-03-03T04:23:03;98262.72;;;1.37;100.00
2785;BME280;57944;48.722;9.316;2023-03-03T04:25:33;98259.53;;;1.35;100.00
2785;BME280;57944;48.722;9.316;2023-03-03T04:28:14;98262.16;;;1.33;100.00
2785;BME280;57944;48.722;9.316;2023-03-03T04:30:46;98267.72;;;1.37;100.00
2785;BME280;57944;48.722;9.316;2023-03-03T04:33:17;98268.09;;;1.32;100.00
2785;BME280;57944;48.722;9.316;2023-03-03T04:35:48;98264.72;;;1.13;100.00
2785;BME280;57944;48.722;9.316;2023-03-03T04:38:19;98256.00;;;1.17;100.00
2785;BME280;57944;48.722;9.316;2023-03-03T04:40:50;98262.63;;;1.18;100.00
2785;BME280;57944;48.722;9.316;2023-03-03T04:43:24;98261.53;;;1.10;100.00
2785;BME280;57944;48.722;9.316;2023-03-03T04:45:55;98263.59;;;1.05;100.00
2785;BME280;57944;48.722;9.316;2023-03-03T04:48:25;98257.63;;;0.97;100.00
2785;BME280;57944;48.722;9.316;2023-03-03T04:50:55;98260.34;;;0.84;100.00
2785;BME280;57944;48.722;9.316;2023-03-03T04:53:26;98265.75;;;0.89;100.00
2785;BME280;57944;48.722;9.316;2023-03-03T04:55:56;98269.19;;;0.88;100.00
2785;BME280;57944;48.722;9.316;2023-03-03T04:58:29;98266.44;;;0.91;100.00
2785;BME280;57944;48.722;9.316;2023-03-03T05:01:00;98272.13;;;0.93;100.00
2785;BME280;57944;48.722;9.316;2023-03-03T05:03:32;98271.78;;;0.98;100.00
2785;BME280;57944;48.722;9.316;2023-03-03T05:06:02;98274.09;;;0.89;100.00
2785;BME280;57944;48.722;9.316;2023-03-03T05:08:32;98282.84;;;0.95;100.00
2785;BME280;57944;48.722;9.316;2023-03-03T05:11:03;98281.69;;;0.99;100.00
2785;BME280;57944;48.722;9.316;2023-03-03T05:13:36;98285.22;;;1.18;100.00
2785;BME280;57944;48.722;9.316;2023-03-03T05:16:06;98283.13;;;1.23;100.00
2785;BME280;57944;48.722;9.316;2023-03-03T05:18:37;98284.78;;;1.13;100.00
2785;BME280;57944;48.722;9.316;2023-03-03T05:21:07;98287.16;;;1.14;100.00
2785;BME280;57944;48.722;9.316;2023-03-03T05:23:37;98280.06;;;1.19;100.00
2785;BME280;57944;48.722;9.316;2023-03-03T05:26:07;98278.66;;;1.26;100.00
2785;BME280;57944;48.722;9.316;2023-03-03T05:28:40;98282.63;;;1.29;100.00
2785;BME280;57944;48.722;9.316;2023-03-03T05:31:10;98284.19;;;1.20;100.00
2785;BME280;57944;48.722;9.316;2023-03-03T05:33:41;98282.47;;;1.21;100.00
2785;BME280;57944;48.722;9.316;2023-03-03T05:36:11;98283.06;;;1.34;100.00
2785;BME280;57944;48.722;9.316;2023-03-03T05:38:41;98287.31;;;1.43;100.00
2785;BME280;57944;48.722;9.316;2023-03-03T05:41:11;98300.03;;;1.51;100.00
2785;BME280;57944;48.722;9.316;2023-03-03T05:43:44;98292.59;;;1.40;100.00
2785;BME280;57944;48.722;9.316;2023-03-03T05:46:14;98293.66;;;1.47;100.00
2785;BME280;57944;48.722;9.316;2023-03-03T05:48:44;98305.50;;;1.66;100.00
2785;BME280;57944;48.722;9.316;2023-03-03T05:51:14;98305.81;;;1.73;100.00
2785;BME280;57944;48.722;9.316;2023-03-03T05:53:44;98305.72;;;1.84;100.00
2785;BME280;57944;48.722;9.316;2023-03-03T05:56:14;98303.31;;;1.83;100.00
2785;BME280;57944;48.722;9.316;2023-03-03T05:58:47;98307.47;;;1.63;100.00
2785;BME280;57944;48.722;9.316;2023-03-03T06:01:17;98309.84;;;1.64;100.00
2785;BME280;57944;48.722;9.316;2023-03-03T06:03:48;98315.44;;;1.68;100.00
2785;BME280;57944;48.722;9.316;2023-03-03T06:06:18;98306.72;;;1.72;100.00
2785;BME280;57944;48.722;9.316;2023-03-03T06:08:48;98314.50;;;1.69;100.00
2785;BME280;57944;48.722;9.316;2023-03-03T06:11:23;98309.63;;;1.77;100.00
2785;BME280;57944;48.722;9.316;2023-03-03T06:13:55;98317.97;;;1.77;100.00
2785;BME280;57944;48.722;9.316;2023-03-03T06:16:26;98316.81;;;1.82;100.00
2785;BME280;57944;48.722;9.316;2023-03-03T06:18:56;98325.81;;;1.84;100.00
2785;BME280;57944;48.722;9.316;2023-03-03T06:21:26;98322.09;;;1.88;100.00
2785;BME280;57944;48.722;9.316;2023-03-03T06:23:56;98333.78;;;1.99;100.00
2785;BME280;57944;48.722;9.316;2023-03-03T06:26:26;98337.50;;;2.05;100.00
2785;BME280;57944;48.722;9.316;2023-03-03T06:28:59;98337.66;;;2.13;100.00
2785;BME280;57944;48.722;9.316;2023-03-03T06:31:29;98329.84;;;2.16;100.00
2785;BME280;57944;48.722;9.316;2023-03-03T06:33:59;98337.50;;;2.05;100.00
2785;BME280;57944;48.722;9.316;2023-03-03T06:36:29;98331.56;;;2.15;100.00
2785;BME280;57944;48.722;9.316;2023-03-03T06:38:59;98340.19;;;2.32;100.00
2785;BME280;57944;48.722;9.316;2023-03-03T06:41:30;98344.97;;;2.35;100.00
2785;BME280;57944;48.722;9.316;2023-03-03T06:44:03;98341.13;;;2.51;100.00
2785;BME280;57944;48.722;9.316;2023-03-03T06:46:33;98347.63;;;2.63;100.00
2785;BME280;57944;48.722;9.316;2023-03-03T06:49:03;98351.19;;;2.70;100.00
2785;BME280;57944;48.722;9.316;2023-03-03T06:51:36;98354.66;;;2.79;100.00
2785;BME280;57944;48.722;9.316;2023-03-03T06:54:11;98353.47;;;2.93;100.00
2785;BME280;57944;48.722;9.316;2023-03-03T06:56:43;98348.94;;;3.06;100.00
2785;BME280;57944;48.722;9.316;2023-03-03T06:59:19;98344.28;;;3.21;100.00
2785;BME280;57944;48.722;9.316;2023-03-03T07:01:50;98353.13;;;3.34;100.00
2785;BME280;57944;48.722;9.316;2023-03-03T07:04:27;98360.25;;;3.49;100.00
2785;BME280;57944;48.722;9.316;2023-03-03T07:07:10;98363.72;;;3.38;100.00
2785;BME280;57944;48.722;9.316;2023-03-03T07:09:45;98366.91;;;3.30;100.00
2785;BME280;57944;48.722;9.316;2023-03-03T07:12:18;98369.06;;;3.06;100.00
2785;BME280;57944;48.722;9.316;2023-03-03T07:14:57;98367.47;;;3.24;100.00
2785;BME280;57944;48.722;9.316;2023-03-03T07:17:33;98368.44;;;3.51;100.00
2785;BME280;57944;48.722;9.316;2023-03-03T07:20:16;98378.56;;;3.78;100.00
2785;BME280;57944;48.722;9.316;2023-03-03T07:22:47;98379.66;;;4.03;100.00
2785;BME280;57944;48.722;9.316;2023-03-03T07:25:31;98388.06;;;3.94;100.00
2785;BME280;57944;48.722;9.316;2023-03-03T07:28:19;98375.38;;;3.86;100.00
2785;BME280;57944;48.722;9.316;2023-03-03T07:30:55;98382.81;;;4.15;100.00
2785;BME280;57944;48.722;9.316;2023-03-03T07:33:28;98380.81;;;4.37;100.00
2785;BME280;57944;48.722;9.316;2023-03-03T07:36:02;98384.56;;;4.33;100.00
2785;BME280;57944;48.722;9.316;2023-03-03T07:38:39;98381.13;;;4.06;100.00
2785;BME280;57944;48.722;9.316;2023-03-03T07:41:16;98387.94;;;4.23;100.00
2785;BME280;57944;48.722;9.316;2023-03-03T07:43:52;98384.38;;;4.44;100.00
2785;BME280;57944;48.722;9.316;2023-03-03T07:46:30;98385.13;;;4.27;100.00
2785;BME280;57944;48.722;9.316;2023-03-03T07:49:21;98387.28;;;4.21;100.00
2785;BME280;57944;48.722;9.316;2023-03-03T07:51:54;98389.75;;;4.31;100.00
2785;BME280;57944;48.722;9.316;2023-03-03T07:54:34;98391.81;;;4.81;100.00
2785;BME280;57944;48.722;9.316;2023-03-03T07:57:19;98393.88;;;5.04;100.00
2785;BME280;57944;48.722;9.316;2023-03-03T07:59:52;98388.69;;;5.05;100.00
2785;BME280;57944;48.722;9.316;2023-03-03T08:02:38;98393.75;;;5.49;100.00
2785;BME280;57944;48.722;9.316;2023-03-03T08:05:29;98400.56;;;5.83;95.86
2785;BME280;57944;48.722;9.316;2023-03-03T08:08:25;98401.03;;;5.08;100.00
2785;BME280;57944;48.722;9.316;2023-03-03T08:10:58;98396.44;;;5.56;98.56
2785;BME280;57944;48.722;9.316;2023-03-03T08:13:37;98391.66;;;5.45;94.66
2785;BME280;57944;48.722;9.316;2023-03-03T08:16:32;98399.00;;;5.90;90.95
2785;BME280;57944;48.722;9.316;2023-03-03T08:19:12;98393.78;;;5.57;84.04
2785;BME280;57944;48.722;9.316;2023-03-03T08:21:46;98390.63;;;5.37;86.83
2785;BME280;57944;48.722;9.316;2023-03-03T08:24:16;98396.91;;;4.89;87.00
2785;BME280;57944;48.722;9.316;2023-03-03T08:26:46;98397.31;;;4.77;90.18
2785;BME280;57944;48.722;9.316;2023-03-03T08:29:16;98400.81;;;4.84;89.68
2785;BME280;57944;48.722;9.316;2023-03-03T08:31:46;98387.91;;;4.87;90.97
2785;BME280;57944;48.722;9.316;2023-03-03T08:34:18;98388.72;;;5.57;87.71
2785;BME280;57944;48.722;9.316;2023-03-03T08:36:48;98398.88;;;6.34;81.62
2785;BME280;57944;48.722;9.316;2023-03-03T08:39:18;98401.97;;;6.95;73.83
2785;BME280;57944;48.722;9.316;2023-03-03T08:41:48;98400.53;;;7.25;71.15
2785;BME280;57944;48.722;9.316;2023-03-03T08:44:19;98404.84;;;6.25;76.72
2785;BME280;57944;48.722;9.316;2023-03-03T08:46:49;98399.84;;;6.41;77.29
2785;BME280;57944;48.722;9.316;2023-03-03T08:49:21;98395.13;;;6.63;77.35
2785;BME280;57944;48.722;9.316;2023-03-03T08:51:52;98389.63;;;6.09;79.75
2785;BME280;57944;48.722;9.316;2023-03-03T08:54:23;98396.59;;;6.15;79.54
2785;BME280;57944;48.722;9.316;2023-03-03T08:56:53;98403.53;;;6.04;80.56
2785;BME280;57944;48.722;9.316;2023-03-03T08:59:23;98402.09;;;5.76;81.00
2785;BME280;57944;48.722;9.316;2023-03-03T09:01:53;98413.63;;;6.47;78.03
2785;BME280;57944;48.722;9.316;2023-03-03T09:04:26;98414.44;;;6.64;73.46
2785;BME280;57944;48.722;9.316;2023-03-03T09:06:56;98416.41;;;6.28;75.51
2785;BME280;57944;48.722;9.316;2023-03-03T09:09:26;98418.03;;;5.94;77.95
2785;BME280;57944;48.722;9.316;2023-03-03T09:12:01;98418.16;;;6.27;76.47
2785;BME280;57944;48.722;9.316;2023-03-03T09:14:36;98424.78;;;6.95;72.96
2785;BME280;57944;48.722;9.316;2023-03-03T09:17:23;98429.66;;;7.54;68.54
2785;BME280;57944;48.722;9.316;2023-03-03T09:20:01;98432.03;;;7.64;66.85
2785;BME280;57944;48.722;9.316;2023-03-03T09:22:39;98431.72;;;7.67;64.52
2785;BME280;57944;48.722;9.316;2023-03-03T09:25:22;98424.63;;;8.41;61.33
2785;BME280;57944;48.722;9.316;2023-03-03T09:27:56;98427.97;;;7.94;62.42
2785;BME280;57944;48.722;9.316;2023-03-03T09:30:39;98432.69;;;8.53;62.03
2785;BME280;57944;48.722;9.316;2023-03-03T09:33:23;98430.59;;;9.02;59.27
2785;BME280;57944;48.722;9.316;2023-03-03T09:36:17;98432.34;;;9.25;56.96
2785;BME280;57944;48.722;9.316;2023-03-03T09:38:49;98429.31;;;9.06;56.01
2785;BME280;57944;48.722;9.316;2023-03-03T09:41:51;98429.78;;;8.87;57.77
2785;BME280;57944;48.722;9.316;2023-03-03T09:51:15;98426.59;;;9.31;57.48
2785;BME280;57944;48.722;9.316;2023-03-03T09:54:18;98426.44;;;9.77;55.59
2785;BME280;57944;48.722;9.316;2023-03-03T09:57:02;98427.50;;;9.68;55.15
2785;BME280;57944;48.722;9.316;2023-03-03T09:59:50;98430.56;;;10.07;53.86
2785;BME280;57944;48.722;9.316;2023-03-03T10:02:46;98437.06;;;10.10;52.88
2785;BME280;57944;48.722;9.316;2023-03-03T10:05:33;98430.94;;;10.56;52.72
2785;BME280;57944;48.722;9.316;2023-03-03T10:08:35;98427.19;;;12.68;48.15
2785;BME280;57944;48.722;9.316;2023-03-03T10:11:18;98434.38;;;11.90;48.73
2785;BME280;57944;48.722;9.316;2023-03-03T10:14:20;98428.19;;;12.13;47.98
2785;BME280;57944;48.722;9.316;2023-03-03T10:17:13;98433.94;;;12.21;47.99
2785;BME280;57944;48.722;9.316;2023-03-03T10:20:02;98427.59;;;12.92;46.90
2785;BME280;57944;48.722;9.316;2023-03-03T10:22:51;98430.69;;;13.87;44.14
2785;BME280;57944;48.722;9.316;2023-03-03T10:25:37;98430.00;;;13.07;45.06
2785;BME280;57944;48.722;9.316;2023-03-03T10:28:36;98430.75;;;13.60;44.60
2785;BME280;57944;48.722;9.316;2023-03-03T10:31:20;98429.34;;;12.71;45.21
2785;BME280;57944;48.722;9.316;2023-03-03T10:34:03;98430.25;;;12.37;46.40
2785;BME280;57944;48.722;9.316;2023-03-03T10:36:53;98426.81;;;12.85;44.72
2785;BME280;57944;48.722;9.316;2023-03-03T10:39:58;98424.84;;;12.80;45.05
2785;BME280;57944;48.722;9.316;2023-03-03T10:43:06;98428.97;;;12.88;47.10
2785;BME280;57944;48.722;9.316;2023-03-03T10:46:27;98425.63;;;12.13;46.34
2785;BME280;57944;48.722;9.316;2023-03-03T10:49:37;98421.59;;;12.45;46.27
2785;BME280;57944;48.722;9.316;2023-03-03T10:52:28;98423.06;;;12.81;45.76
2785;BME280;57944;48.722;9.316;2023-03-03T10:58:34;98418.47;;;11.60;48.58
2785;BME280;57944;48.722;9.316;2023-03-03T11:01:24;98420.75;;;10.56;50.83
2785;BME280;57944;48.722;9.316;2023-03-03T11:04:20;98427.06;;;11.03;49.98
2785;BME280;57944;48.722;9.316;2023-03-03T11:07:02;98414.56;;;11.36;49.94
2785;BME280;57944;48.722;9.316;2023-03-03T11:09:55;98422.34;;;11.00;49.81
2785;BME280;57944;48.722;9.316;2023-03-03T11:12:42;98405.88;;;10.23;52.11
2785;BME280;57944;48.722;9.316;2023-03-03T11:15:35;98419.47;;;10.45;52.11
2785;BME280;57944;48.722;9.316;2023-03-03T11:18:33;98416.75;;;10.68;51.87
2785;BME280;57944;48.722;9.316;2023-03-03T11:21:16;98423.44;;;10.90;51.68
2785;BME280;57944;48.722;9.316;2023-03-03T11:24:18;98427.56;;;11.13;50.41
2785;BME280;57944;48.722;9.316;2023-03-03T11:27:23;98428.91;;;9.85;52.87
2785;BME280;57944;48.722;9.316;2023-03-03T11:30:30;98426.19;;;10.31;52.89
2785;BME280;57944;48.722;9.316;2023-03-03T11:33:08;98424.84;;;10.35;52.54
2785;BME280;57944;48.722;9.316;2023-03-03T11:35:46;98435.38;;;11.11;51.35
2785;BME280;57944;48.722;9.316;2023-03-03T11:38:42;98425.00;;;11.41;49.18
2785;BME280;57944;48.722;9.316;2023-03-03T11:41:29;98427.97;;;12.75;45.76
2785;BME280;57944;48.722;9.316;2023-03-03T11:44:12;98424.72;;;12.34;46.96
2785;BME280;57944;48.722;9.316;2023-03-03T11:46:54;98426.66;;;12.25;46.70
2785;BME280;57944;48.722;9.316;2023-03-03T11:49:32;98426.69;;;11.55;48.02
2785;BME280;57944;48.722;9.316;2023-03-03T11:52:21;98419.22;;;11.54;47.95
2785;BME280;57944;48.722;9.316;2023-03-03T11:55:01;98407.19;;;11.82;47.47
2785;BME280;57944;48.722;9.316;2023-03-03T11:57:40;98413.78;;;11.35;48.71
2785;BME280;57944;48.722;9.316;2023-03-03T12:00:21;98412.47;;;10.90;49.84
2785;BME280;57944;48.722;9.316;2023-03-03T12:03:15;98395.25;;;10.56;51.03
2785;BME280;57944;48.722;9.316;2023-03-03T12:05:56;98402.56;;;9.48;53.62
2785;BME280;57944;48.722;9.316;2023-03-03T12:09:00;98393.13;;;9.19;54.54
2785;BME280;57944;48.722;9.316;2023-03-03T12:11:44;98393.88;;;9.57;53.98
2785;BME280;57944;48.722;9.316;2023-03-03T12:14:36;98385.69;;;10.06;52.93
2785;BME280;57944;48.722;9.316;2023-03-03T12:17:24;98388.34;;;9.39;54.54
2785;BME280;57944;48.722;9.316;2023-03-03T12:20:08;98378.50;;;9.36;55.02
2785;BME280;57944;48.722;9.316;2023-03-03T12:23:00;98386.69;;;8.70;56.56
2785;BME280;57944;48.722;9.316;2023-03-03T12:25:38;98386.19;;;8.44;59.37
2785;BME280;57944;48.722;9.316;2023-03-03T12:28:18;98388.75;;;8.44;59.72
2785;BME280;57944;48.722;9.316;2023-03-03T12:31:24;98380.38;;;9.04;56.69
2785;BME280;57944;48.722;9.316;2023-03-03T12:34:04;98378.50;;;9.36;55.66
2785;BME280;57944;48.722;9.316;2023-03-03T12:37:10;98384.06;;;9.54;55.27
2785;BME280;57944;48.722;9.316;2023-03-03T12:39:53;98380.97;;;9.29;56.20
2785;BME280;57944;48.722;9.316;2023-03-03T12:42:40;98376.16;;;9.34;56.11
2785;BME280;57944;48.722;9.316;2023-03-03T12:45:31;98375.97;;;9.36;55.92
2785;BME280;57944;48.722;9.316;2023-03-03T12:48:11;98370.06;;;9.21;57.10
2785;BME280;57944;48.722;9.316;2023-03-03T12:51:00;98366.63;;;8.76;58.29
2785;BME280;57944;48.722;9.316;2023-03-03T12:53:48;98359.84;;;8.68;59.91
2785;BME280;57944;48.722;9.316;2023-03-03T12:56:32;98370.22;;;9.04;58.73
2785;BME280;57944;48.722;9.316;2023-03-03T12:59:13;98372.09;;;9.25;57.42
2785;BME280;57944;48.722;9.316;2023-03-03T13:02:01;98358.88;;;9.59;55.92
2785;BME280;57944;48.722;9.316;2023-03-03T13:04:39;98365.19;;;9.34;56.34
2785;BME280;57944;48.722;9.316;2023-03-03T13:07:18;98366.38;;;9.08;57.70
2785;BME280;57944;48.722;9.316;2023-03-03T13:10:08;98370.00;;;9.44;56.49
2785;BME280;57944;48.722;9.316;2023-03-03T13:12:46;98362.13;;;9.68;55.69
2785;BME280;57944;48.722;9.316;2023-03-03T13:15:23;98361.25;;;8.93;57.24
2785;BME280;57944;48.722;9.316;2023-03-03T13:18:18;98359.97;;;8.75;58.65
2785;BME280;57944;48.722;9.316;2023-03-03T13:21:04;98366.13;;;9.18;57.58
2785;BME280;57944;48.722;9.316;2023-03-03T13:23:48;98365.56;;;9.08;57.52
2785;BME280;57944;48.722;9.316;2023-03-03T13:26:29;98362.72;;;9.26;56.51
2785;BME280;57944;48.722;9.316;2023-03-03T13:29:12;98359.03;;;9.43;56.07
2785;BME280;57944;48.722;9.316;2023-03-03T13:31:48;98359.56;;;9.68;55.76
2785;BME280;57944;48.722;9.316;2023-03-03T13:34:34;98355.47;;;9.67;54.55
2785;BME280;57944;48.722;9.316;2023-03-03T13:37:14;98353.34;;;9.41;54.64
2785;BME280;57944;48.722;9.316;2023-03-03T13:39:58;98347.81;;;9.23;56.05
2785;BME280;57944;48.722;9.316;2023-03-03T13:42:39;98349.91;;;9.49;55.54
2785;BME280;57944;48.722;9.316;2023-03-03T13:45:20;98346.31;;;9.58;54.81
2785;BME280;57944;48.722;9.316;2023-03-03T13:48:04;98346.66;;;9.84;54.05
2785;BME280;57944;48.722;9.316;2023-03-03T13:50:43;98348.50;;;9.76;54.22
2785;BME280;57944;48.722;9.316;2023-03-03T13:53:40;98352.91;;;9.52;54.98
2785;BME280;57944;48.722;9.316;2023-03-03T13:56:35;98347.63;;;9.69;54.05
2785;BME280;57944;48.722;9.316;2023-03-03T13:59:24;98343.69;;;9.51;54.63
2785;BME280;57944;48.722;9.316;2023-03-03T14:02:09;98345.97;;;9.31;55.19
2785;BME280;57944;48.722;9.316;2023-03-03T14:04:52;98344.75;;;9.42;55.03
2785;BME280;57944;48.722;9.316;2023-03-03T14:07:29;98338.53;;;9.59;54.61
2785;BME280;57944;48.722;9.316;2023-03-03T14:10:12;98334.56;;;9.72;53.88
2785;BME280;57944;48.722;9.316;2023-03-03T14:12:56;98339.59;;;9.50;54.40
2785;BME280;57944;48.722;9.316;2023-03-03T14:15:34;98333.34;;;9.23;54.97
2785;BME280;57944;48.722;9.316;2023-03-03T14:18:27;98328.69;;;8.74;56.45
2785;BME280;57944;48.722;9.316;2023-03-03T14:21:04;98333.41;;;9.00;56.44